Time;durP1;ratioP1;P1;durP2;ratioP2;P2;SDS_P1;SDS_P2;PMS_P1;PMS_P2;Temp;Humidity;BMP_temperature;BMP_pressure;BME280_temperature;BME280_humidity;BME280_pressure;Samples;Min_cycle;Max_cycle;Signal;HPM_P1;HPM_P2
2021/06/19 00:02:03;;;;;;;8.10;6.25;;;;;;;20.65;65.76;94848.13;5051450;28;20459;-79
2021/06/19 00:04:32;;;;;;;6.10;5.60;;;;;;;20.63;65.68;94847.63;5035294;28;20028;-79
2021/06/19 00:06:58;;;;;;;6.45;5.47;;;;;;;20.57;65.88;94840.91;5051810;28;20036;-80
2021/06/19 00:09:23;;;;;;;13.18;6.15;;;;;;;20.59;65.71;94841.38;5034331;28;20044;-79
2021/06/19 00:11:49;;;;;;;9.93;5.82;;;;;;;20.61;65.34;94849.78;5052261;28;20056;-79
2021/06/19 00:14:14;;;;;;;7.20;5.57;;;;;;;20.58;65.41;94840.59;5051067;28;20043;-79
2021/06/19 00:16:40;;;;;;;8.88;5.57;;;;;;;20.56;65.60;94837.47;5051127;28;22269;-79
2021/06/19 00:19:05;;;;;;;6.88;5.28;;;;;;;20.51;65.75;94842.09;5034031;28;20033;-80
2021/06/19 00:21:30;;;;;;;8.27;6.18;;;;;;;20.49;65.91;94836.28;5017981;28;20029;-79
2021/06/19 00:23:56;;;;;;;6.72;6.05;;;;;;;20.45;65.83;94843.22;5034351;28;20033;-79
2021/06/19 00:26:21;;;;;;;7.82;5.93;;;;;;;20.43;66.11;94845.38;5050221;28;20032;-78
2021/06/19 00:28:47;;;;;;;7.93;6.07;;;;;;;20.40;66.17;94841.44;5051703;28;20062;-81
2021/06/19 00:31:12;;;;;;;5.90;5.40;;;;;;;20.41;65.90;94840.41;5051339;28;20033;-79
2021/06/19 00:33:38;;;;;;;7.57;5.82;;;;;;;20.30;66.23;94839.75;5041900;28;20045;-79
2021/06/19 00:36:03;;;;;;;6.45;5.80;;;;;;;20.29;66.15;94840.84;5019220;28;20044;-81
2021/06/19 00:38:29;;;;;;;6.30;5.80;;;;;;;20.27;66.04;94840.34;5034346;28;20036;-81
2021/06/19 00:40:54;;;;;;;6.78;5.70;;;;;;;20.19;66.24;94830.47;5018508;28;20033;-81
2021/06/19 00:43:20;;;;;;;13.55;6.32;;;;;;;20.22;66.14;94840.44;5035148;28;20036;-81
2021/06/19 00:45:45;;;;;;;9.68;6.13;;;;;;;20.15;66.44;94837.38;5052647;28;20471;-81
2021/06/19 00:48:11;;;;;;;5.82;5.28;;;;;;;20.08;66.61;94831.72;5052161;28;20048;-81
2021/06/19 00:50:38;;;;;;;7.07;5.85;;;;;;;20.03;66.65;94832.59;5034743;28;20056;-81
2021/06/19 00:53:03;;;;;;;8.50;5.57;;;;;;;20.04;66.73;94836.03;5051626;28;20033;-81
2021/06/19 00:55:29;;;;;;;6.25;5.63;;;;;;;20.01;66.64;94831.28;5053476;28;20074;-81
2021/06/19 00:57:54;;;;;;;5.82;5.22;;;;;;;19.99;66.92;94828.16;5057987;28;20025;-81
2021/06/19 01:00:20;;;;;;;14.98;6.00;;;;;;;20.00;66.96;94825.22;5071157;28;20084;-80
2021/06/19 01:02:46;;;;;;;7.28;5.78;;;;;;;19.99;66.92;94809.69;5075609;28;20033;-80
2021/06/19 01:05:17;;;;;;;8.30;5.85;;;;;;;19.96;67.03;94818.19;5057708;28;20166;-81
2021/06/19 01:07:43;;;;;;;8.50;6.10;;;;;;;19.96;66.98;94812.91;5018308;28;20587;-80
2021/06/19 01:10:09;;;;;;;8.13;5.18;;;;;;;19.95;67.56;94817.41;5051788;28;20033;-81
2021/06/19 01:12:35;;;;;;;9.70;6.32;;;;;;;19.95;67.06;94816.63;5035804;28;20036;-81
2021/06/19 01:15:00;;;;;;;7.20;5.45;;;;;;;19.95;67.04;94816.63;5051519;28;20057;-81
2021/06/19 01:17:26;;;;;;;6.22;5.60;;;;;;;19.92;67.17;94801.38;5052662;28;20463;-81
2021/06/19 01:20:08;;;;;;;5.85;5.35;;;;;;;19.96;66.82;94805.78;5052746;28;20103;-81
2021/06/19 01:22:35;;;;;;;5.15;4.65;;;;;;;19.95;66.94;94806.06;5051859;28;20060;-81
2021/06/19 01:25:01;;;;;;;5.35;4.95;;;;;;;19.97;66.59;94815.25;5034471;28;20121;-81
2021/06/19 01:27:28;;;;;;;4.90;4.50;;;;;;;19.96;66.57;94807.63;5050683;28;20099;-81
2021/06/19 01:29:53;;;;;;;4.65;4.25;;;;;;;19.97;66.77;94814.47;5050584;28;20033;-80
2021/06/19 01:32:19;;;;;;;5.10;4.40;;;;;;;19.97;66.28;94814.47;5051461;28;20037;-80
2021/06/19 01:34:44;;;;;;;5.10;4.05;;;;;;;19.95;66.22;94816.63;5050960;28;20033;-80
2021/06/19 01:37:19;;;;;;;4.63;4.20;;;;;;;19.97;66.40;94825.03;5051030;28;20144;-80
2021/06/19 01:39:44;;;;;;;4.10;3.80;;;;;;;19.92;66.75;94822.50;5032160;28;20036;-80
2021/06/19 01:42:10;;;;;;;3.95;3.65;;;;;;;19.95;66.54;94830.59;5052801;28;20033;-80
2021/06/19 01:44:35;;;;;;;6.43;4.40;;;;;;;19.96;66.63;94820.84;5053595;28;20067;-80
2021/06/19 01:47:00;;;;;;;5.30;4.50;;;;;;;19.97;66.24;94830.31;5053650;28;20036;-80
2021/06/19 01:49:35;;;;;;;7.05;4.25;;;;;;;19.98;66.53;94822.09;5055457;28;20036;-81
2021/06/19 01:52:01;;;;;;;9.55;4.10;;;;;;;19.93;66.44;94832.75;5037030;28;20112;-81
2021/06/19 01:54:27;;;;;;;3.65;3.42;;;;;;;19.93;66.52;94827.47;5054124;28;20254;-81
2021/06/19 01:56:59;;;;;;;8.32;4.03;;;;;;;19.91;66.52;94820.94;5037866;28;20029;-80
2021/06/19 01:59:24;;;;;;;5.03;3.95;;;;;;;19.92;66.50;94823.28;5053350;28;20083;-81
2021/06/19 02:01:49;;;;;;;9.40;3.72;;;;;;;19.90;66.44;94841.25;5054754;28;20032;-81
2021/06/19 02:04:21;;;;;;;5.38;3.65;;;;;;;19.87;66.48;94851.63;5056105;28;20473;-81
2021/06/19 02:06:46;;;;;;;3.85;3.47;;;;;;;19.86;67.25;94848.19;5054088;28;20023;-81
2021/06/19 02:09:12;;;;;;;6.63;3.55;;;;;;;19.86;68.25;94855.34;5037363;28;20120;-80
2021/06/19 02:11:37;;;;;;;12.55;4.10;;;;;;;19.86;68.44;94850.06;5055728;28;20063;-80
2021/06/19 02:14:04;;;;;;;4.72;3.08;;;;;;;19.84;68.53;94852.16;5054979;28;20079;-81
2021/06/19 02:16:29;;;;;;;4.15;3.75;;;;;;;19.79;68.68;94851.19;5054612;28;20484;-80
2021/06/19 02:18:55;;;;;;;5.95;3.60;;;;;;;19.79;68.57;94853.03;5055018;28;20031;-80
2021/06/19 02:21:20;;;;;;;3.75;3.45;;;;;;;19.75;68.49;94854.69;5037439;28;20021;-80
2021/06/19 02:23:46;;;;;;;3.97;3.17;;;;;;;19.69;68.16;94867.19;5037441;28;20067;-81
2021/06/19 02:26:11;;;;;;;11.85;4.00;;;;;;;19.39;70.50;94868.38;5037159;28;20043;-80
2021/06/19 02:28:37;;;;;;;5.00;4.53;;;;;;;19.13;71.82;94857.41;5053771;28;20029;-81
2021/06/19 02:31:02;;;;;;;4.63;4.22;;;;;;;19.19;72.47;94856.25;5037501;28;20037;-80
2021/06/19 02:33:28;;;;;;;4.90;4.50;;;;;;;19.27;72.53;94857.47;5020189;28;20052;-80
2021/06/19 02:35:53;;;;;;;6.65;4.90;;;;;;;19.33;72.33;94852.91;5054405;28;20033;-81
2021/06/19 02:38:19;;;;;;;5.03;4.50;;;;;;;19.32;72.00;94852.13;5058310;28;20037;-80
2021/06/19 02:40:46;;;;;;;5.35;4.38;;;;;;;19.34;72.53;94849.19;5054327;28;20048;-80
2021/06/19 02:43:11;;;;;;;4.65;4.28;;;;;;;19.33;72.48;94858.19;5054052;28;20029;-80
2021/06/19 02:45:37;;;;;;;6.30;4.40;;;;;;;19.37;72.78;94859.19;5020403;28;20043;-80
2021/06/19 02:48:03;;;;;;;8.95;4.15;;;;;;;19.42;72.98;94865.19;5054446;28;20078;-80
2021/06/19 02:50:30;;;;;;;5.40;4.30;;;;;;;19.42;72.62;94857.25;5053599;28;20055;-80
2021/06/19 02:52:56;;;;;;;4.28;3.88;;;;;;;19.45;72.51;94850.63;5052487;28;20504;-80
2021/06/19 02:55:25;;;;;;;4.60;4.20;;;;;;;19.44;71.46;94859.63;5053193;28;20115;-80
2021/06/19 02:57:51;;;;;;;4.35;3.65;;;;;;;19.41;71.20;94862.81;5036025;28;20048;-80
2021/06/19 03:00:17;;;;;;;4.68;4.10;;;;;;;19.38;71.84;94856.28;5054312;28;20029;-80
2021/06/19 03:02:46;;;;;;;5.65;4.28;;;;;;;19.40;71.68;94848.84;5053421;28;20408;-80
2021/06/19 03:05:13;;;;;;;4.30;3.90;;;;;;;19.43;71.47;94845.66;5053323;28;20025;-80
2021/06/19 03:07:38;;;;;;;6.18;4.55;;;;;;;19.48;72.42;94847.41;5052344;28;20527;-80
2021/06/19 03:10:14;;;;;;;10.20;4.60;;;;;;;19.47;72.25;94848.50;5054111;28;20032;-80
2021/06/19 03:12:46;;;;;;;5.32;4.55;;;;;;;19.52;72.70;94843.13;5053946;28;20037;-80
2021/06/19 03:15:14;;;;;;;6.28;4.95;;;;;;;19.54;73.02;94846.31;5054127;28;20110;-80
2021/06/19 03:17:40;;;;;;;4.43;3.97;;;;;;;19.58;72.74;94849.94;5054001;28;20037;-80
2021/06/19 03:20:07;;;;;;;4.00;3.70;;;;;;;19.51;70.96;94836.28;5035985;28;20039;-80
2021/06/19 03:22:58;;;;;;;8.95;3.45;;;;;;;19.56;71.23;94846.03;5052612;28;20044;-81
2021/06/19 03:25:28;;;;;;;10.90;3.75;;;;;;;19.51;71.07;94846.84;5053772;28;20040;-81
2021/06/19 03:27:55;;;;;;;4.38;3.13;;;;;;;19.48;71.14;94845.56;5052954;28;20035;-81
2021/06/19 03:30:20;;;;;;;11.80;3.72;;;;;;;19.47;70.91;94840.56;5052624;28;20549;-81
2021/06/19 03:32:49;;;;;;;3.83;3.53;;;;;;;19.52;70.82;94844.97;5019240;28;20564;-80
2021/06/19 03:35:21;;;;;;;4.93;3.22;;;;;;;19.58;70.42;94843.88;5069573;28;20087;-80
2021/06/19 03:37:47;;;;;;;3.45;3.10;;;;;;;19.58;70.54;94839.41;5053874;28;20029;-81
2021/06/19 03:40:13;;;;;;;3.70;3.50;;;;;;;19.59;70.89;94846.22;5041155;28;20118;-80
2021/06/19 03:42:39;;;;;;;3.90;3.60;;;;;;;19.64;70.88;94838.22;5057609;28;20036;-82
2021/06/19 03:45:06;;;;;;;4.13;3.78;;;;;;;19.66;70.61;94837.94;5040306;28;20033;-80
2021/06/19 03:47:31;;;;;;;3.70;3.40;;;;;;;19.65;70.36;94842.44;5060323;28;20084;-81
2021/06/19 03:49:57;;;;;;;3.53;3.22;;;;;;;19.65;70.57;94841.66;5055120;28;20033;-80
2021/06/19 03:52:22;;;;;;;3.78;3.35;;;;;;;19.69;70.76;94840.03;5055960;28;20021;-80
2021/06/19 03:54:48;;;;;;;4.13;3.72;;;;;;;19.69;70.17;94851.38;5055114;28;20036;-82
2021/06/19 03:57:24;;;;;;;3.58;3.35;;;;;;;19.68;70.90;94855.03;5058143;28;20033;-81
2021/06/19 03:59:49;;;;;;;6.65;3.70;;;;;;;19.71;70.10;94854.50;5057812;28;20043;-80
2021/06/19 04:02:16;;;;;;;7.78;3.88;;;;;;;19.69;70.24;94846.09;5056459;28;20032;-81
2021/06/19 04:04:41;;;;;;;3.80;3.47;;;;;;;19.68;70.13;94844.50;5038703;28;20025;-81
2021/06/19 04:07:06;;;;;;;6.70;3.40;;;;;;;19.71;69.98;94838.66;5054822;28;20043;-80
2021/06/19 04:09:32;;;;;;;5.03;3.13;;;;;;;19.73;70.19;94835.75;5042075;28;20033;-80
2021/06/19 04:11:58;;;;;;;6.13;3.58;;;;;;;19.73;69.83;94836.53;5023952;28;20033;-81
2021/06/19 04:14:23;;;;;;;4.25;3.40;;;;;;;19.75;70.60;94829.09;5056997;28;20040;-80
2021/06/19 04:16:49;;;;;;;4.15;3.75;;;;;;;19.81;70.14;94835.06;5037981;28;20032;-80
2021/06/19 04:19:14;;;;;;;6.65;3.92;;;;;;;19.90;69.95;94829.91;5052595;28;20500;-81
2021/06/19 04:21:43;;;;;;;7.38;3.60;;;;;;;19.94;69.51;94836.19;5052666;28;20025;-81
2021/06/19 04:24:08;;;;;;;3.13;2.90;;;;;;;20.08;69.01;94829.09;5052195;28;20612;-81
2021/06/19 04:26:34;;;;;;;4.75;4.28;;;;;;;20.18;69.03;94836.84;5053485;28;20112;-81
2021/06/19 04:28:59;;;;;;;16.17;3.60;;;;;;;20.27;68.45;94829.00;5035901;28;20040;-80
2021/06/19 04:31:24;;;;;;;5.53;3.03;;;;;;;20.35;67.66;94831.78;5034451;28;20059;-80
2021/06/19 04:33:50;;;;;;;4.22;2.42;;;;;;;20.35;67.11;94839.69;5053064;28;20484;-81
2021/06/19 04:36:17;;;;;;;6.85;3.20;;;;;;;20.26;67.83;94838.00;5068449;28;20473;-80
2021/06/19 04:38:42;;;;;;;3.92;3.40;;;;;;;20.27;67.96;94839.56;5035860;28;20036;-81
2021/06/19 04:41:12;;;;;;;3.50;3.20;;;;;;;20.28;67.57;94846.41;5052921;28;20072;-81
2021/06/19 04:46:12;;;;;;;2.53;2.40;;;;;;;20.32;67.35;94855.31;5052488;28;20047;-82
2021/06/19 04:48:37;;;;;;;7.78;3.22;;;;;;;20.30;67.57;94860.09;5060151;28;20088;-79
2021/06/19 04:51:03;;;;;;;3.08;2.70;;;;;;;20.29;67.81;94859.31;5058099;28;20032;-80
2021/06/19 04:53:28;;;;;;;5.35;3.10;;;;;;;20.30;68.02;94862.75;5070083;28;20485;-80
2021/06/19 04:55:54;;;;;;;5.68;3.55;;;;;;;20.36;68.09;94859.75;5053835;28;20032;-80
2021/06/19 04:58:19;;;;;;;5.13;3.38;;;;;;;20.42;68.22;94852.53;5018932;28;20039;-80
2021/06/19 05:00:48;;;;;;;3.92;3.03;;;;;;;20.45;67.91;94861.72;5037011;28;20119;-79
2021/06/19 05:03:17;;;;;;;4.78;3.45;;;;;;;20.50;68.35;94859.78;5059890;28;20040;-79
2021/06/19 05:05:43;;;;;;;6.35;2.88;;;;;;;20.53;67.68;94861.06;5061463;28;20021;-78
2021/06/19 05:08:08;;;;;;;5.82;3.22;;;;;;;20.60;67.96;94869.38;5058238;28;20071;-79
2021/06/19 05:10:34;;;;;;;5.68;3.20;;;;;;;20.73;67.91;94865.94;5059202;22;20040;-80
2021/06/19 05:12:59;;;;;;;3.20;2.80;;;;;;;21.03;66.98;94855.84;5072316;28;20052;-79
2021/06/19 05:15:26;;;;;;;4.35;2.92;;;;;;;22.32;62.87;94864.06;5071196;28;20024;-79
2021/06/19 05:17:54;;;;;;;4.63;3.03;;;;;;;23.10;60.21;94862.47;5031000;28;20036;-80
2021/06/19 05:20:20;;;;;;;3.85;2.67;;;;;;;23.31;59.17;94863.44;5063188;28;20032;-80
2021/06/19 05:22:46;;;;;;;6.75;3.15;;;;;;;23.21;59.29;94860.31;5049314;28;20052;-78
2021/06/19 05:25:13;;;;;;;4.45;2.45;;;;;;;23.23;59.67;94858.13;5066952;28;20037;-79
2021/06/19 05:27:39;;;;;;;3.97;2.90;;;;;;;24.19;57.28;94855.16;5073628;28;20510;-78
2021/06/19 05:30:05;;;;;;;5.63;3.08;;;;;;;25.13;54.65;94855.91;5047752;28;20025;-79
2021/06/19 05:32:31;;;;;;;8.15;3.35;;;;;;;25.00;53.85;94850.81;5050128;28;20040;-80
2021/06/19 05:34:56;;;;;;;7.93;2.97;;;;;;;24.69;54.36;94857.19;5059980;28;20034;-79
2021/06/19 05:37:25;;;;;;;9.18;3.30;;;;;;;24.42;55.17;94854.97;5064439;28;20033;-79
2021/06/19 05:39:55;;;;;;;5.70;3.28;;;;;;;24.19;55.99;94857.81;5063115;28;20052;-79
2021/06/19 05:42:21;;;;;;;6.90;3.90;;;;;;;24.24;55.76;94864.81;5065870;28;20039;-80
2021/06/19 05:44:47;;;;;;;6.95;5.07;;;;;;;24.44;55.11;94861.53;5064150;28;20040;-81
2021/06/19 05:47:15;;;;;;;5.88;5.20;;;;;;;24.38;55.33;94862.78;5045806;28;20025;-78
2021/06/19 05:49:41;;;;;;;5.55;4.05;;;;;;;24.23;56.00;94865.91;5066673;28;20274;-78
2021/06/19 05:52:07;;;;;;;5.53;3.85;;;;;;;23.98;56.58;94870.19;5047474;28;20400;-81
2021/06/19 05:54:36;;;;;;;7.57;3.80;;;;;;;23.84;57.27;94867.69;5063264;28;20045;-79
2021/06/19 05:57:08;;;;;;;7.97;6.95;;;;;;;23.68;57.93;94865.84;5062598;28;20051;-80
2021/06/19 05:59:33;;;;;;;6.25;5.25;;;;;;;23.49;58.47;94868.78;5065475;28;20114;-80
2021/06/19 06:02:02;;;;;;;11.32;8.63;;;;;;;23.32;59.24;94870.31;5061142;28;20032;-80
2021/06/19 06:04:28;;;;;;;22.85;16.55;;;;;;;23.18;59.53;94872.31;5049120;28;20025;-82
2021/06/19 06:06:54;;;;;;;8.15;6.72;;;;;;;22.99;59.81;94879.78;5068638;28;20033;-82
2021/06/19 06:09:20;;;;;;;6.57;5.10;;;;;;;22.80;59.78;94873.91;5065772;28;20052;-82
2021/06/19 06:11:48;;;;;;;8.60;4.70;;;;;;;22.71;61.18;94887.13;5049132;28;20128;-82
2021/06/19 06:14:14;;;;;;;8.02;3.50;;;;;;;22.49;62.75;94887.97;5065702;28;20036;-83
2021/06/19 06:16:40;;;;;;;9.50;5.88;;;;;;;22.30;62.80;94882.91;5066345;28;20577;-83
2021/06/19 06:19:05;;;;;;;8.27;4.47;;;;;;;22.19;62.65;94883.44;5065648;28;20032;-82
2021/06/19 06:21:31;;;;;;;14.73;6.15;;;;;;;22.07;63.14;94882.13;5054503;28;20032;-71
2021/06/19 06:23:57;;;;;;;14.95;8.65;;;;;;;21.89;63.81;94877.78;5060651;28;20371;-72
2021/06/19 06:26:22;;;;;;;15.18;8.20;;;;;;;21.79;64.89;94888.59;5060283;28;20472;-72
2021/06/19 06:28:47;;;;;;;11.98;5.18;;;;;;;21.65;65.44;94887.88;5060623;28;20044;-72
2021/06/19 06:31:13;;;;;;;10.65;4.88;;;;;;;21.46;66.06;94883.50;5058540;28;20029;-71
2021/06/19 06:33:47;;;;;;;15.27;5.75;;;;;;;21.29;67.10;94886.00;5060349;28;20032;-71
2021/06/19 06:36:13;;;;;;;10.00;6.03;;;;;;;21.19;67.52;94886.19;5061096;28;20052;-71
2021/06/19 06:38:38;;;;;;;8.73;5.13;;;;;;;21.14;67.67;94875.69;5059184;28;20029;-72
2021/06/19 06:41:03;;;;;;;12.65;6.07;;;;;;;21.17;67.97;94875.13;5058948;28;20032;-72
2021/06/19 06:43:29;;;;;;;8.68;4.68;;;;;;;21.34;67.19;94874.53;5042601;28;20482;-72
2021/06/19 06:45:54;;;;;;;6.22;4.00;;;;;;;22.73;63.83;94885.72;5060780;28;20040;-72
2021/06/19 06:48:20;;;;;;;11.82;5.90;;;;;;;23.82;61.23;94882.41;5057133;28;20052;-72
2021/06/19 06:50:45;;;;;;;12.13;5.50;;;;;;;23.89;60.54;94878.16;5059464;28;20029;-72
2021/06/19 06:53:11;;;;;;;9.55;5.15;;;;;;;24.02;60.09;94876.44;5059937;28;20485;-72
2021/06/19 06:55:36;;;;;;;14.23;4.95;;;;;;;24.83;57.84;94875.59;5059643;28;20028;-72
2021/06/19 06:58:01;;;;;;;9.18;5.35;;;;;;;26.32;52.76;94873.13;5060403;28;20033;-72
2021/06/19 07:00:33;;;;;;;10.18;5.40;;;;;;;27.20;50.49;94860.38;5060038;28;20313;-72
2021/06/19 07:02:59;;;;;;;12.25;4.30;;;;;;;28.35;47.75;94857.13;5058044;28;20645;-72
2021/06/19 07:05:24;;;;;;;9.98;5.07;;;;;;;28.50;46.84;94864.38;5059644;28;20052;-72
2021/06/19 07:07:50;;;;;;;5.45;3.85;;;;;;;28.88;46.01;94857.69;5059848;28;20046;-72
2021/06/19 07:10:15;;;;;;;8.13;4.43;;;;;;;29.00;46.09;94854.91;5058493;28;20037;-71
2021/06/19 07:12:45;;;;;;;5.85;4.22;;;;;;;29.08;45.73;94855.84;5058900;28;20451;-71
2021/06/19 07:15:11;;;;;;;6.60;4.65;;;;;;;28.79;45.77;94849.00;5059893;28;20043;-71
2021/06/19 07:17:37;;;;;;;9.15;4.72;;;;;;;29.18;46.22;94849.94;5058437;28;20489;-71
2021/06/19 07:20:05;;;;;;;9.65;4.50;;;;;;;29.31;43.70;94842.59;5058827;28;20222;-71
2021/06/19 07:22:30;;;;;;;7.05;3.65;;;;;;;29.73;44.63;94842.69;5059579;28;20029;-71
2021/06/19 07:24:56;;;;;;;11.57;4.32;;;;;;;30.34;43.41;94840.06;5059595;28;20036;-71
2021/06/19 07:27:21;;;;;;;7.90;4.20;;;;;;;30.57;41.65;94836.59;5058321;28;20032;-71
2021/06/19 07:29:47;;;;;;;11.60;4.15;;;;;;;30.75;41.56;94832.31;5059753;28;20039;-71
2021/06/19 07:32:12;;;;;;;5.20;3.50;;;;;;;30.95;42.98;94835.72;5059557;28;20423;-71
2021/06/19 07:34:38;;;;;;;8.30;4.43;;;;;;;31.15;41.86;94828.31;5059700;28;20039;-71
2021/06/19 07:37:03;;;;;;;3.42;3.10;;;;;;;31.41;41.90;94831.03;5061153;28;20032;-71
2021/06/19 07:39:29;;;;;;;4.00;2.85;;;;;;;31.53;39.31;94825.41;5058477;28;20053;-71
2021/06/19 07:41:54;;;;;;;3.97;2.95;;;;;;;31.77;40.09;94828.81;5058655;28;20028;-71
2021/06/19 07:44:20;;;;;;;7.53;3.10;;;;;;;31.91;38.86;94823.59;5059397;28;20083;-71
2021/06/19 07:46:47;;;;;;;4.50;3.00;;;;;;;31.86;37.78;94823.91;5057943;28;20423;-71
2021/06/19 07:49:13;;;;;;;8.23;3.20;;;;;;;31.66;38.98;94817.88;5060236;28;20028;-71
2021/06/19 07:51:38;;;;;;;5.55;3.08;;;;;;;31.57;39.20;94817.41;5080286;28;20033;-71
2021/06/19 07:54:04;;;;;;;4.90;2.67;;;;;;;31.61;38.96;94818.22;5059270;28;20033;-71
2021/06/19 07:56:29;;;;;;;4.55;2.65;;;;;;;31.30;40.28;94830.09;5059766;28;20413;-70
2021/06/19 07:58:55;;;;;;;6.15;3.47;;;;;;;30.93;40.88;94811.91;5040846;28;20036;-70
2021/06/19 08:01:20;;;;;;;12.60;3.15;;;;;;;30.70;40.44;94803.88;5058064;28;20032;-71
2021/06/19 08:03:46;;;;;;;12.00;3.40;;;;;;;30.50;41.18;94809.66;5058605;28;20070;-72
2021/06/19 08:06:11;;;;;;;5.07;3.15;;;;;;;30.49;41.38;94814.25;5041205;28;20037;-72
2021/06/19 08:08:47;;;;;;;8.20;2.95;;;;;;;30.49;41.58;94814.25;5058873;28;20025;-72
2021/06/19 08:11:13;;;;;;;4.65;2.97;;;;;;;30.15;41.86;94810.59;5055568;28;20044;-70
2021/06/19 08:13:38;;;;;;;5.63;3.30;;;;;;;29.71;42.01;94802.84;5057253;28;20041;-70
2021/06/19 08:16:05;;;;;;;10.43;3.47;;;;;;;29.54;42.25;94814.00;5057825;28;20506;-72
2021/06/19 08:18:31;;;;;;;4.78;3.85;;;;;;;29.45;42.13;94811.50;5055725;28;20032;-71
2021/06/19 08:20:56;;;;;;;4.45;4.05;;;;;;;29.29;42.93;94818.81;5058514;28;20048;-71
2021/06/19 08:23:42;;;;;;;14.57;9.85;;;;;;;29.04;42.55;94820.94;5059038;28;20071;-73
2021/06/19 08:26:07;;;;;;;13.43;8.18;;;;;;;28.73;43.48;94812.94;5058093;28;20041;-71
2021/06/19 08:28:34;;;;;;;8.25;6.97;;;;;;;28.68;44.39;94812.09;5058942;28;20033;-71
2021/06/19 08:31:03;;;;;;;11.38;5.75;;;;;;;28.71;45.49;94810.59;5058547;28;20036;-70
2021/06/19 08:33:29;;;;;;;6.70;3.70;;;;;;;28.53;45.67;94812.88;5059092;28;20075;-70
2021/06/19 08:35:54;;;;;;;9.00;5.53;;;;;;;28.31;44.39;94803.56;5059132;28;20041;-70
2021/06/19 08:38:24;;;;;;;11.75;3.97;;;;;;;28.11;44.60;94799.94;5072572;28;20032;-71
2021/06/19 08:40:49;;;;;;;11.55;5.15;;;;;;;28.11;45.49;94796.50;5073164;28;20120;-71
2021/06/19 08:43:16;;;;;;;6.45;4.47;;;;;;;28.16;47.24;94795.47;5058958;28;20104;-71
2021/06/19 08:45:42;;;;;;;5.38;4.47;;;;;;;28.15;47.18;94793.91;5058098;28;20080;-70
2021/06/19 08:48:07;;;;;;;6.75;4.63;;;;;;;28.06;47.42;94796.75;5057101;28;20492;-70
2021/06/19 08:50:36;;;;;;;9.60;4.30;;;;;;;27.85;46.26;94791.63;5057725;28;20033;-70
2021/06/19 08:53:01;;;;;;;4.55;4.13;;;;;;;27.63;48.41;94794.81;5042519;28;20430;-71
2021/06/19 08:55:28;;;;;;;5.65;3.85;;;;;;;27.42;48.78;94786.97;5061490;28;20028;-70
2021/06/19 08:57:53;;;;;;;9.50;5.38;;;;;;;27.35;49.07;94778.78;5062140;28;20029;-71
2021/06/19 09:00:19;;;;;;;4.75;3.33;;;;;;;27.38;47.33;94773.53;5062288;28;20093;-68
2021/06/19 09:02:46;;;;;;;3.78;3.45;;;;;;;27.38;49.03;94767.41;5062307;28;20032;-71
2021/06/19 09:05:13;;;;;;;6.00;3.63;;;;;;;27.43;46.30;94769.84;5060963;28;20082;-71
2021/06/19 09:07:51;;;;;;;4.88;3.38;;;;;;;27.49;46.01;94777.25;5059972;28;20211;-70
2021/06/19 09:10:21;;;;;;;5.32;3.00;;;;;;;27.62;45.16;94788.69;5060245;28;20652;-70
2021/06/19 09:12:54;;;;;;;5.10;3.35;;;;;;;27.74;44.33;94785.22;5060660;28;20036;-71
2021/06/19 09:15:19;;;;;;;13.57;3.22;;;;;;;27.85;44.52;94774.81;5061486;28;20051;-71
2021/06/19 09:18:19;;;;;;;12.20;3.40;;;;;;;27.49;44.81;94774.59;5061131;28;20429;-71
2021/06/19 09:20:50;;;;;;;3.35;2.88;;;;;;;27.33;44.67;94771.09;5061509;28;20041;-70
2021/06/19 09:23:16;;;;;;;6.20;3.30;;;;;;;27.25;43.91;94780.03;5061154;28;20050;-70
2021/06/19 09:25:42;;;;;;;3.80;3.30;;;;;;;26.90;44.62;94774.41;5061629;28;20431;-70
2021/06/19 09:28:08;;;;;;;6.25;3.80;;;;;;;26.93;46.58;94769.16;5060155;28;20036;-71
2021/06/19 09:30:34;;;;;;;7.22;3.78;;;;;;;27.00;45.06;94767.81;5059705;28;20028;-70
2021/06/19 09:33:10;;;;;;;6.53;3.42;;;;;;;26.99;44.92;94767.03;5060562;28;20029;-71
2021/06/19 09:35:39;;;;;;;9.63;4.72;;;;;;;26.95;45.80;94770.72;5059781;28;20407;-70
2021/06/19 09:38:12;;;;;;;14.95;4.35;;;;;;;26.83;47.94;94782.94;5059659;28;20111;-70
2021/06/19 09:40:47;;;;;;;5.38;4.15;;;;;;;26.42;49.76;94791.19;5060480;28;20059;-70
2021/06/19 09:43:21;;;;;;;9.32;3.92;;;;;;;25.83;52.03;94780.84;5061287;28;20068;-70
2021/06/19 09:46:03;;;;;;;6.15;3.60;;;;;;;25.43;53.48;94789.31;5059622;28;20667;-70
2021/06/19 09:48:30;;;;;;;6.35;4.35;;;;;;;25.08;54.58;94786.16;5061102;28;20051;-68
2021/06/19 09:51:21;;;;;;;10.60;7.53;;;;;;;24.85;56.75;94791.72;5060359;28;20033;-68
2021/06/19 09:53:48;;;;;;;16.50;9.63;;;;;;;24.66;58.04;94777.28;5059865;28;20033;-68
2021/06/19 09:56:15;;;;;;;15.23;7.80;;;;;;;24.50;58.62;94790.34;5061680;28;20028;-68
2021/06/19 09:58:48;;;;;;;11.80;5.97;;;;;;;24.32;59.94;94783.56;5061817;28;20028;-68
2021/06/19 10:01:34;;;;;;;10.63;5.07;;;;;;;24.17;59.49;94790.13;5060693;28;20060;-67
2021/06/19 10:04:00;;;;;;;4.88;4.25;;;;;;;23.97;59.22;94777.53;5059594;28;20702;-67
2021/06/19 10:06:26;;;;;;;5.53;4.10;;;;;;;23.64;59.96;94776.22;5060068;28;20036;-68
2021/06/19 10:08:52;;;;;;;8.00;4.30;;;;;;;23.57;60.63;94775.88;5061214;28;20067;-68
2021/06/19 10:11:18;;;;;;;8.77;4.20;;;;;;;23.56;60.30;94776.19;5058736;28;20040;-68
2021/06/19 10:13:44;;;;;;;5.93;4.45;;;;;;;23.59;60.67;94772.91;5060668;28;20032;-68
2021/06/19 10:16:13;;;;;;;10.88;5.15;;;;;;;23.57;61.00;94765.28;5060686;28;20033;-67
2021/06/19 10:18:42;;;;;;;8.63;5.00;;;;;;;23.51;62.13;94761.19;5060024;28;20028;-68
2021/06/19 10:21:08;;;;;;;9.32;5.70;;;;;;;23.54;62.49;94749.16;5059916;28;20508;-68
2021/06/19 10:23:33;;;;;;;16.83;5.95;;;;;;;23.56;63.05;94742.44;5058894;28;20040;-68
2021/06/19 10:25:59;;;;;;;12.57;5.97;;;;;;;23.60;63.11;94742.66;5059688;28;20040;-67
2021/06/19 10:28:25;;;;;;;10.57;5.50;;;;;;;23.59;62.67;94741.06;5060449;28;20041;-68
2021/06/19 10:30:51;;;;;;;8.15;5.97;;;;;;;23.65;64.07;94734.50;5059407;28;20064;-67
2021/06/19 10:33:29;;;;;;;18.20;9.68;;;;;;;23.78;63.68;94730.13;5042463;28;20029;-67
2021/06/19 10:35:56;;;;;;;9.05;7.57;;;;;;;23.90;62.74;94727.56;5058416;28;20504;-67
2021/06/19 10:38:21;;;;;;;10.88;5.13;;;;;;;24.03;61.55;94723.16;5059723;28;20091;-68
2021/06/19 10:40:51;;;;;;;4.93;4.30;;;;;;;24.22;62.22;94726.19;5059623;28;20450;-67
2021/06/19 10:43:17;;;;;;;4.45;4.05;;;;;;;24.32;60.53;94725.88;5060267;28;20021;-68
2021/06/19 10:45:45;;;;;;;5.40;4.35;;;;;;;24.41;60.37;94710.66;5059637;28;20059;-68
2021/06/19 10:48:12;;;;;;;4.45;3.50;;;;;;;24.47;59.09;94712.03;5058281;28;20044;-68
2021/06/19 10:50:49;;;;;;;5.47;4.10;;;;;;;24.61;59.06;94705.69;5059447;28;20036;-67
2021/06/19 10:53:19;;;;;;;5.05;3.88;;;;;;;24.74;58.21;94699.34;5059517;28;20039;-67
2021/06/19 10:55:44;;;;;;;4.80;4.32;;;;;;;24.89;59.36;94709.38;5059311;28;20036;-68
2021/06/19 10:58:24;;;;;;;8.48;4.03;;;;;;;24.96;58.85;94711.53;5060147;28;20037;-67
2021/06/19 11:00:59;;;;;;;4.68;4.20;;;;;;;25.03;59.66;94709.16;5059541;28;20043;-67
2021/06/19 11:03:43;;;;;;;4.57;4.00;;;;;;;24.83;57.96;94702.72;5059254;28;20037;-67
2021/06/19 11:06:27;;;;;;;8.00;4.28;;;;;;;24.79;57.41;94717.78;5059758;28;20037;-67
2021/06/19 11:09:25;;;;;;;6.78;4.63;;;;;;;24.85;59.40;94727.09;5058957;28;20098;-67
2021/06/19 11:12:02;;;;;;;6.90;4.97;;;;;;;24.89;59.59;94729.88;5059457;28;20068;-67
2021/06/19 11:14:40;;;;;;;8.68;4.60;;;;;;;24.79;59.27;94728.41;5058719;28;20028;-67
2021/06/19 11:17:14;;;;;;;7.70;5.57;;;;;;;24.74;59.41;94734.72;5058306;28;20056;-67
2021/06/19 11:19:40;;;;;;;8.95;4.55;;;;;;;24.70;59.67;94740.97;5059092;28;20032;-67
2021/06/19 11:22:40;;;;;;;12.02;4.15;;;;;;;24.65;59.69;94749.16;5059057;28;20036;-67
2021/06/19 11:25:25;;;;;;;24.10;17.55;;;;;;;24.50;60.33;94751.25;5059104;28;20055;-67
2021/06/19 11:28:07;;;;;;;33.40;26.15;;;;;;;24.32;60.82;94762.28;5059392;28;20039;-67
2021/06/19 11:30:35;;;;;;;7.10;5.37;;;;;;;24.00;60.21;94776.91;5057301;28;20119;-67
2021/06/19 11:33:16;;;;;;;6.60;3.65;;;;;;;23.43;61.23;94788.53;5058544;28;20516;-67
2021/06/19 11:35:45;;;;;;;5.13;3.30;;;;;;;23.03;60.97;94772.75;5058812;28;20032;-67
2021/06/19 11:38:10;;;;;;;13.20;3.35;;;;;;;22.73;62.15;94785.00;5057868;28;20269;-67